Gillette, WY (82716)

9:30 PM MST on February 25, 2017 (GMT -0700)
Lakeland Hills | | Change Station

Elev 4580 ft 44.30 °N, 105.48 °W | Updated 5 seconds ago

Scattered Clouds
Scattered Clouds
20.1 °F
Feels Like 15 °F
N
3.8
Wind Variable Wind from WSW
Gusts 13.0 mph

Today
High -- | Low -- °F
--% Chance of Precip.
Yesterday
High -- | Low -- °F
Precip. -- in
Pressure 29.69 in
Visibility 10.0 miles
Clouds Few 3200 ft
Scattered Clouds 7500 ft
Windchill 15 °F
Dew Point 14 °F
Humidity 79%
Rainfall 0.00 in
Snow Depth Not available.
6:45 AM 5:45 PM
Waning Crescent, 0% visible
SPECI KGCC 260422Z AUTO 26008KT 10SM FEW032 SCT075 M07/M09 A2969 RMK AO2 SNE06 P0001 T10671089 $
Pressure 29.69 in
Visibility 10.0 miles
Clouds Few 3200 ft
Scattered Clouds 7500 ft
Windchill 15 °F
Dew Point 14 °F
Humidity 79%
Rainfall 0.00 in
Snow Depth Not available.
6:45 AM 5:45 PM
Waning Crescent, 0% visible
SPECI KGCC 260422Z AUTO 26008KT 10SM FEW032 SCT075 M07/M09 A2969 RMK AO2 SNE06 P0001 T10671089 $

Get Your Daily Forecast Email!

Thanks for signing up!

Be on the lookout for a verification email in your inbox.

You'll start receiving the daily forecast at 8 AM.

×

10-Day Weather Forecast

Almanac

Astronomy

Feb. 25, 2017 Rise Set
Actual Time
Civil Twilight
Nautical Twilight
Astronomical Twilight
Moon
Length of Visible Light
Length of Day
Tomorrow will be .
, % of the Moon is Illuminated

Today's Extremes

State Highs State Lows

Community

WunderPhotos

Upload Photos

1,962,540 photos uploaded!

WunderBlog® & News

Nearby

Air Quality

  Air Quality AQ Index Pollutant
Not available.

Snow Depth

Station Depth Elevation

Earthquake Activity

City Distance Mag. Time & Date
Minimum magnitude displayed is 2.5.

Coastal Water Temperatures

Place Temperature

Stations

Nearby Weather Stations

Station Location Temp. Windchill Dew Point Humidity Wind Precip. Elev Updated Type
                   

Watches & Warnings

There are currently no watches in effect.